<?xml version="1.0" encoding="UTF-8" standalone="no" ?>
<gpx xmlns="http://www.topografix.com/GPX/1/1" xmlns:xsi="http://www.w3.org/2001/XMLSchema-instance" xsi:schemaLocation="http://www.topografix.com/GPX/1/1 http://www.topografix.com/GPX/1/1/gpx.xsd" version="1.1" creator="VisuGPX - https://www.visugpx.com">
  <metadata>
    <name>grand_colombier-TET</name>
    <desc><![CDATA[name=2022 09 24 Begin of the TET section 20 Track
cmt=
desc=
time=2022-09-24T09:46:08Z]]></desc>
  </metadata>
  <wpt lat="45.85842" lon="5.77164">
    <ele>661.1</ele>
    <name><![CDATA[à vérif]]></name>
    <desc><![CDATA[name=à vérif]]></desc>
  </wpt>
  <wpt lat="45.86391" lon="5.82138">
    <ele>238.1</ele>
    <name><![CDATA[ok]]></name>
    <desc><![CDATA[name=ok]]></desc>
  </wpt>
  <wpt lat="46.00337" lon="5.81125">
    <ele>271.3</ele>
    <name><![CDATA[ok]]></name>
    <desc><![CDATA[name=ok]]></desc>
  </wpt>
  <wpt lat="45.98447" lon="5.79127">
    <ele>573.6</ele>
    <name><![CDATA[ok]]></name>
    <desc><![CDATA[name=ok]]></desc>
  </wpt>
  <wpt lat="45.97026" lon="5.76896">
    <ele>1090.4</ele>
    <name><![CDATA[ok]]></name>
    <desc><![CDATA[name=ok]]></desc>
  </wpt>
  <wpt lat="46.09692" lon="5.77954">
    <ele>576.7</ele>
    <name><![CDATA[ok]]></name>
    <desc><![CDATA[name=ok]]></desc>
  </wpt>
  <wpt lat="46.17247" lon="5.75381">
    <ele>531.9</ele>
    <name><![CDATA[ok]]></name>
    <desc><![CDATA[name=ok]]></desc>
  </wpt>
  <wpt lat="45.89804" lon="5.73838">
    <ele>910.1</ele>
    <name><![CDATA[ok]]></name>
    <desc><![CDATA[name=ok]]></desc>
  </wpt>
  <wpt lat="45.92864" lon="5.73929">
    <ele>830.7</ele>
  </wpt>
  <wpt lat="45.95229" lon="5.74925">
    <ele>1311.1</ele>
  </wpt>
  <wpt lat="45.86162" lon="5.79089">
    <ele>594.4</ele>
    <name><![CDATA[par la route]]></name>
    <desc><![CDATA[name=par la route]]></desc>
  </wpt>
  <wpt lat="45.92514" lon="5.79762">
    <ele>682.4</ele>
    <name><![CDATA[Vérif si autorisé]]></name>
    <desc><![CDATA[name=Vérif si autorisé]]></desc>
  </wpt>
  <wpt lat="45.89315" lon="5.7063">
    <ele>484.5</ele>
    <name><![CDATA[ok]]></name>
    <desc><![CDATA[name=ok]]></desc>
  </wpt>
  <wpt lat="45.87199" lon="5.7075">
    <ele>246.1</ele>
    <name><![CDATA[ok]]></name>
    <desc><![CDATA[name=ok]]></desc>
  </wpt>
  <wpt lat="45.8999" lon="5.83082">
    <ele>240</ele>
    <name><![CDATA[ok]]></name>
    <desc><![CDATA[name=ok]]></desc>
  </wpt>
  <trk>
    <name><![CDATA[Cormaranche-en-Bugey]]></name>
    <desc><![CDATA[name=Cormaranche-en-Bugey
cmt=
desc=
time=2019-04-27T14:12:58Z]]></desc>
    <extensions>
      <line xmlns="http://www.topografix.com/GPX/gpx_style/0/2">
        <color>00FFFF</color>
        <width>4</width>
      </line>
    </extensions>
    <trkseg>
      <trkpt lat="45.95585" lon="5.60297">
        <ele>808.758</ele>
        <time>2019-04-27T14:12:58Z</time>
      </trkpt>
      <trkpt lat="45.95605" lon="5.60286">
        <ele>809.252</ele>
        <time>2019-04-27T14:13:29Z</time>
      </trkpt>
      <trkpt lat="45.95614" lon="5.60335">
        <ele>807.317</ele>
        <time>2019-04-27T14:13:58Z</time>
      </trkpt>
      <trkpt lat="45.95591" lon="5.60353">
        <ele>809.508</ele>
        <time>2019-04-27T14:14:13Z</time>
      </trkpt>
      <trkpt lat="45.95602" lon="5.60309">
        <ele>809.478</ele>
        <time>2019-04-27T14:14:19Z</time>
      </trkpt>
      <trkpt lat="45.95646" lon="5.60297">
        <ele>809.44</ele>
        <time>2019-04-27T14:15:48Z</time>
      </trkpt>
      <trkpt lat="45.95474" lon="5.60466">
        <ele>816.732</ele>
        <time>2019-04-27T14:16:08Z</time>
      </trkpt>
      <trkpt lat="45.95191" lon="5.60915">
        <ele>833.159</ele>
        <time>2019-04-27T14:16:37Z</time>
      </trkpt>
      <trkpt lat="45.95111" lon="5.60892">
        <ele>834.765</ele>
        <time>2019-04-27T14:16:45Z</time>
      </trkpt>
      <trkpt lat="45.95061" lon="5.608">
        <ele>828.122</ele>
        <time>2019-04-27T14:16:54Z</time>
      </trkpt>
      <trkpt lat="45.94782" lon="5.60595">
        <ele>814.197</ele>
        <time>2019-04-27T14:17:14Z</time>
      </trkpt>
      <trkpt lat="45.94639" lon="5.60556">
        <ele>808.086</ele>
        <time>2019-04-27T14:17:26Z</time>
      </trkpt>
      <trkpt lat="45.94649" lon="5.60409">
        <ele>801.357</ele>
        <time>2019-04-27T14:17:34Z</time>
      </trkpt>
      <trkpt lat="45.94561" lon="5.6038">
        <ele>799.6</ele>
        <time>2019-04-27T14:17:43Z</time>
      </trkpt>
      <trkpt lat="45.94536" lon="5.60223">
        <ele>800.92</ele>
        <time>2019-04-27T14:17:53Z</time>
      </trkpt>
      <trkpt lat="45.94437" lon="5.60342">
        <ele>803.808</ele>
        <time>2019-04-27T14:22:00Z</time>
      </trkpt>
      <trkpt lat="45.94361" lon="5.60582">
        <ele>795.918</ele>
        <time>2019-04-27T14:22:14Z</time>
      </trkpt>
      <trkpt lat="45.94371" lon="5.60624">
        <ele>792.88</ele>
        <time>2019-04-27T14:22:18Z</time>
      </trkpt>
      <trkpt lat="45.94323" lon="5.60634">
        <ele>789.422</ele>
        <time>2019-04-27T14:22:24Z</time>
      </trkpt>
      <trkpt lat="45.94271" lon="5.60573">
        <ele>787.279</ele>
        <time>2019-04-27T14:22:28Z</time>
      </trkpt>
      <trkpt lat="45.94188" lon="5.60305">
        <ele>780.615</ele>
        <time>2019-04-27T14:22:39Z</time>
      </trkpt>
      <trkpt lat="45.93949" lon="5.60027">
        <ele>775.432</ele>
        <time>2019-04-27T14:22:59Z</time>
      </trkpt>
      <trkpt lat="45.93877" lon="5.59802">
        <ele>777.557</ele>
        <time>2019-04-27T14:23:11Z</time>
      </trkpt>
      <trkpt lat="45.93888" lon="5.59669">
        <ele>779.496</ele>
        <time>2019-04-27T14:23:18Z</time>
      </trkpt>
      <trkpt lat="45.9385" lon="5.59601">
        <ele>781.744</ele>
        <time>2019-04-27T14:23:23Z</time>
      </trkpt>
      <trkpt lat="45.93921" lon="5.59427">
        <ele>788.905</ele>
        <time>2019-04-27T14:23:40Z</time>
      </trkpt>
      <trkpt lat="45.94038" lon="5.59396">
        <ele>786.715</ele>
        <time>2019-04-27T14:23:54Z</time>
      </trkpt>
      <trkpt lat="45.94064" lon="5.59261">
        <ele>793.208</ele>
        <time>2019-04-27T14:24:04Z</time>
      </trkpt>
      <trkpt lat="45.94175" lon="5.59135">
        <ele>808.527</ele>
        <time>2019-04-27T14:24:15Z</time>
      </trkpt>
      <trkpt lat="45.94302" lon="5.59065">
        <ele>824.939</ele>
        <time>2019-04-27T14:24:25Z</time>
      </trkpt>
      <trkpt lat="45.94694" lon="5.58976">
        <ele>822.211</ele>
        <time>2019-04-27T14:24:51Z</time>
      </trkpt>
      <trkpt lat="45.94752" lon="5.58912">
        <ele>814.168</ele>
        <time>2019-04-27T14:25:00Z</time>
      </trkpt>
      <trkpt lat="45.95323" lon="5.5879">
        <ele>799.354</ele>
        <time>2019-04-27T14:25:48Z</time>
      </trkpt>
      <trkpt lat="45.95594" lon="5.58622">
        <ele>788.571</ele>
        <time>2019-04-27T14:26:20Z</time>
      </trkpt>
      <trkpt lat="45.96001" lon="5.58187">
        <ele>799.516</ele>
        <time>2019-04-27T14:26:56Z</time>
      </trkpt>
      <trkpt lat="45.96105" lon="5.58144">
        <ele>791.365</ele>
        <time>2019-04-27T14:27:04Z</time>
      </trkpt>
      <trkpt lat="45.96316" lon="5.57933">
        <ele>790.656</ele>
        <time>2019-04-27T14:27:42Z</time>
      </trkpt>
      <trkpt lat="45.96667" lon="5.57862">
        <ele>762.559</ele>
        <time>2019-04-27T14:28:07Z</time>
      </trkpt>
      <trkpt lat="45.96765" lon="5.57789">
        <ele>749.714</ele>
        <time>2019-04-27T14:28:17Z</time>
      </trkpt>
      <trkpt lat="45.9679" lon="5.57727">
        <ele>733.008</ele>
        <time>2019-04-27T14:28:36Z</time>
      </trkpt>
      <trkpt lat="45.96771" lon="5.57644">
        <ele>732.818</ele>
        <time>2019-04-27T14:28:44Z</time>
      </trkpt>
      <trkpt lat="45.96829" lon="5.57529">
        <ele>731.34</ele>
        <time>2019-04-27T14:28:56Z</time>
      </trkpt>
      <trkpt lat="45.96863" lon="5.57519">
        <ele>731.072</ele>
        <time>2019-04-27T14:29:01Z</time>
      </trkpt>
      <trkpt lat="45.96855" lon="5.57455">
        <ele>730.189</ele>
        <time>2019-04-27T14:29:08Z</time>
      </trkpt>
      <trkpt lat="45.96913" lon="5.57426">
        <ele>735.435</ele>
        <time>2019-04-27T14:29:18Z</time>
      </trkpt>
      <trkpt lat="45.96822" lon="5.5735">
        <ele>748.262</ele>
        <time>2019-04-27T14:29:29Z</time>
      </trkpt>
      <trkpt lat="45.96759" lon="5.57113">
        <ele>755.637</ele>
        <time>2019-04-27T14:29:42Z</time>
      </trkpt>
      <trkpt lat="45.9678" lon="5.57075">
        <ele>757.056</ele>
        <time>2019-04-27T14:29:47Z</time>
      </trkpt>
      <trkpt lat="45.9677" lon="5.56939">
        <ele>767.396</ele>
        <time>2019-04-27T14:29:57Z</time>
      </trkpt>
      <trkpt lat="45.96814" lon="5.56762">
        <ele>766.131</ele>
        <time>2019-04-27T14:30:06Z</time>
      </trkpt>
      <trkpt lat="45.96725" lon="5.56479">
        <ele>773.424</ele>
        <time>2019-04-27T14:30:24Z</time>
      </trkpt>
      <trkpt lat="45.96738" lon="5.56367">
        <ele>780.508</ele>
        <time>2019-04-27T14:30:31Z</time>
      </trkpt>
      <trkpt lat="45.96706" lon="5.56264">
        <ele>784.752</ele>
        <time>2019-04-27T14:30:39Z</time>
      </trkpt>
      <trkpt lat="45.96801" lon="5.56053">
        <ele>790.014</ele>
        <time>2019-04-27T14:30:58Z</time>
      </trkpt>
      <trkpt lat="45.96656" lon="5.55928">
        <ele>783.716</ele>
        <time>2019-04-27T14:31:16Z</time>
      </trkpt>
      <trkpt lat="45.96616" lon="5.55989">
        <ele>778.793</ele>
        <time>2019-04-27T14:31:27Z</time>
      </trkpt>
      <trkpt lat="45.96537" lon="5.55982">
        <ele>766.369</ele>
        <time>2019-04-27T14:31:41Z</time>
      </trkpt>
      <trkpt lat="45.96525" lon="5.56024">
        <ele>764.426</ele>
        <time>2019-04-27T14:33:13Z</time>
      </trkpt>
      <trkpt lat="45.96412" lon="5.55976">
        <ele>784.421</ele>
        <time>2019-04-27T14:34:10Z</time>
      </trkpt>
      <trkpt lat="45.96201" lon="5.55677">
        <ele>804.57</ele>
        <time>2019-04-27T14:35:02Z</time>
      </trkpt>
      <trkpt lat="45.9624" lon="5.55574">
        <ele>801.579</ele>
        <time>2019-04-27T14:35:47Z</time>
      </trkpt>
      <trkpt lat="45.96449" lon="5.55496">
        <ele>803.505</ele>
        <time>2019-04-27T14:36:17Z</time>
      </trkpt>
      <trkpt lat="45.96442" lon="5.5541">
        <ele>809.025</ele>
        <time>2019-04-27T14:36:27Z</time>
      </trkpt>
      <trkpt lat="45.96366" lon="5.55345">
        <ele>815.508</ele>
        <time>2019-04-27T14:36:41Z</time>
      </trkpt>
      <trkpt lat="45.96505" lon="5.55257">
        <ele>815.46</ele>
        <time>2019-04-27T14:37:00Z</time>
      </trkpt>
      <trkpt lat="45.96628" lon="5.55267">
        <ele>831.482</ele>
        <time>2019-04-27T14:37:17Z</time>
      </trkpt>
      <trkpt lat="45.96683" lon="5.55316">
        <ele>828.124</ele>
        <time>2019-04-27T14:37:25Z</time>
      </trkpt>
      <trkpt lat="45.96897" lon="5.55298">
        <ele>841.591</ele>
        <time>2019-04-27T14:37:48Z</time>
      </trkpt>
      <trkpt lat="45.97002" lon="5.55406">
        <ele>831.567</ele>
        <time>2019-04-27T14:38:05Z</time>
      </trkpt>
      <trkpt lat="45.97085" lon="5.55421">
        <ele>830.794</ele>
        <time>2019-04-27T14:38:13Z</time>
      </trkpt>
      <trkpt lat="45.97146" lon="5.55562">
        <ele>818.619</ele>
        <time>2019-04-27T14:38:29Z</time>
      </trkpt>
      <trkpt lat="45.97263" lon="5.55676">
        <ele>799.658</ele>
        <time>2019-04-27T14:38:44Z</time>
      </trkpt>
      <trkpt lat="45.97317" lon="5.55654">
        <ele>804.941</ele>
        <time>2019-04-27T14:38:52Z</time>
      </trkpt>
      <trkpt lat="45.9731" lon="5.55597">
        <ele>816.581</ele>
        <time>2019-04-27T14:39:00Z</time>
      </trkpt>
      <trkpt lat="45.97417" lon="5.55611">
        <ele>828.409</ele>
        <time>2019-04-27T14:39:10Z</time>
      </trkpt>
      <trkpt lat="45.97425" lon="5.55526">
        <ele>846.008</ele>
        <time>2019-04-27T14:39:22Z</time>
      </trkpt>
      <trkpt lat="45.97498" lon="5.55595">
        <ele>848.157</ele>
        <time>2019-04-27T14:39:30Z</time>
      </trkpt>
      <trkpt lat="45.97668" lon="5.55607">
        <ele>850.759</ele>
        <time>2019-04-27T14:39:43Z</time>
      </trkpt>
      <trkpt lat="45.97747" lon="5.55664">
        <ele>858.341</ele>
        <time>2019-04-27T14:39:51Z</time>
      </trkpt>
      <trkpt lat="45.97905" lon="5.55633">
        <ele>847.358</ele>
        <time>2019-04-27T14:40:05Z</time>
      </trkpt>
      <trkpt lat="45.97935" lon="5.55544">
        <ele>837.314</ele>
        <time>2019-04-27T14:40:52Z</time>
      </trkpt>
      <trkpt lat="45.98037" lon="5.55489">
        <ele>811.031</ele>
        <time>2019-04-27T14:41:14Z</time>
      </trkpt>
      <trkpt lat="45.98071" lon="5.55352">
        <ele>814.766</ele>
        <time>2019-04-27T14:41:35Z</time>
      </trkpt>
      <trkpt lat="45.9817" lon="5.55323">
        <ele>829.715</ele>
        <time>2019-04-27T14:41:55Z</time>
      </trkpt>
      <trkpt lat="45.982" lon="5.55067">
        <ele>843.289</ele>
        <time>2019-04-27T14:42:13Z</time>
      </trkpt>
      <trkpt lat="45.98048" lon="5.54686">
        <ele>844.006</ele>
        <time>2019-04-27T14:42:40Z</time>
      </trkpt>
      <trkpt lat="45.98031" lon="5.54447">
        <ele>846.026</ele>
        <time>2019-04-27T14:42:59Z</time>
      </trkpt>
      <trkpt lat="45.98058" lon="5.54434">
        <ele>847.508</ele>
        <time>2019-04-27T14:43:03Z</time>
      </trkpt>
      <trkpt lat="45.98012" lon="5.54339">
        <ele>848.121</ele>
        <time>2019-04-27T14:43:11Z</time>
      </trkpt>
      <trkpt lat="45.97978" lon="5.54332">
        <ele>849.223</ele>
        <time>2019-04-27T14:43:14Z</time>
      </trkpt>
      <trkpt lat="45.97946" lon="5.54186">
        <ele>855.655</ele>
        <time>2019-04-27T14:43:25Z</time>
      </trkpt>
      <trkpt lat="45.97816" lon="5.5395">
        <ele>875.812</ele>
        <time>2019-04-27T14:43:41Z</time>
      </trkpt>
      <trkpt lat="45.97721" lon="5.53905">
        <ele>909.698</ele>
        <time>2019-04-27T14:43:51Z</time>
      </trkpt>
      <trkpt lat="45.975" lon="5.53946">
        <ele>912.145</ele>
        <time>2019-04-27T14:44:23Z</time>
      </trkpt>
      <trkpt lat="45.97288" lon="5.54131">
        <ele>934.13</ele>
        <time>2019-04-27T14:44:54Z</time>
      </trkpt>
      <trkpt lat="45.96959" lon="5.54014">
        <ele>929.219</ele>
        <time>2019-04-27T14:45:47Z</time>
      </trkpt>
      <trkpt lat="45.96914" lon="5.5396">
        <ele>931.952</ele>
        <time>2019-04-27T14:46:01Z</time>
      </trkpt>
      <trkpt lat="45.96778" lon="5.53937">
        <ele>931.453</ele>
        <time>2019-04-27T14:46:39Z</time>
      </trkpt>
      <trkpt lat="45.96661" lon="5.53843">
        <ele>910.008</ele>
        <time>2019-04-27T14:47:22Z</time>
      </trkpt>
      <trkpt lat="45.96694" lon="5.53759">
        <ele>908.908</ele>
        <time>2019-04-27T14:47:32Z</time>
      </trkpt>
      <trkpt lat="45.96893" lon="5.53667">
        <ele>909.098</ele>
        <time>2019-04-27T14:47:49Z</time>
      </trkpt>
      <trkpt lat="45.96955" lon="5.53684">
        <ele>907.94</ele>
        <time>2019-04-27T14:47:55Z</time>
      </trkpt>
      <trkpt lat="45.96992" lon="5.53579">
        <ele>911.692</ele>
        <time>2019-04-27T14:48:01Z</time>
      </trkpt>
      <trkpt lat="45.97109" lon="5.53543">
        <ele>922.789</ele>
        <time>2019-04-27T14:48:12Z</time>
      </trkpt>
      <trkpt lat="45.97211" lon="5.5346">
        <ele>926.285</ele>
        <time>2019-04-27T14:48:20Z</time>
      </trkpt>
      <trkpt lat="45.97307" lon="5.53498">
        <ele>925.372</ele>
        <time>2019-04-27T14:48:32Z</time>
      </trkpt>
      <trkpt lat="45.97232" lon="5.53312">
        <ele>924.667</ele>
        <time>2019-04-27T14:48:44Z</time>
      </trkpt>
      <trkpt lat="45.97197" lon="5.53299">
        <ele>926.946</ele>
        <time>2019-04-27T14:48:48Z</time>
      </trkpt>
      <trkpt lat="45.97207" lon="5.53173">
        <ele>922.563</ele>
        <time>2019-04-27T14:48:57Z</time>
      </trkpt>
      <trkpt lat="45.97339" lon="5.52966">
        <ele>897.744</ele>
        <time>2019-04-27T14:49:14Z</time>
      </trkpt>
      <trkpt lat="45.97344" lon="5.52914">
        <ele>889.118</ele>
        <time>2019-04-27T14:49:19Z</time>
      </trkpt>
      <trkpt lat="45.97318" lon="5.52888">
        <ele>881.808</ele>
        <time>2019-04-27T14:49:23Z</time>
      </trkpt>
      <trkpt lat="45.9735" lon="5.52835">
        <ele>868.839</ele>
        <time>2019-04-27T14:49:32Z</time>
      </trkpt>
      <trkpt lat="45.97048" lon="5.52637">
        <ele>908.981</ele>
        <time>2019-04-27T14:49:57Z</time>
      </trkpt>
      <trkpt lat="45.97061" lon="5.52575">
        <ele>919.893</ele>
        <time>2019-04-27T14:50:05Z</time>
      </trkpt>
      <trkpt lat="45.97002" lon="5.5243">
        <ele>930.59</ele>
        <time>2019-04-27T14:50:15Z</time>
      </trkpt>
      <trkpt lat="45.96914" lon="5.52341">
        <ele>942.216</ele>
        <time>2019-04-27T14:50:23Z</time>
      </trkpt>
      <trkpt lat="45.96872" lon="5.52208">
        <ele>944.723</ele>
        <time>2019-04-27T14:50:36Z</time>
      </trkpt>
      <trkpt lat="45.96807" lon="5.52194">
        <ele>936.728</ele>
        <time>2019-04-27T14:50:42Z</time>
      </trkpt>
      <trkpt lat="45.97033" lon="5.52068">
        <ele>917.717</ele>
        <time>2019-04-27T14:51:00Z</time>
      </trkpt>
      <trkpt lat="45.97027" lon="5.52002">
        <ele>912.615</ele>
        <time>2019-04-27T14:51:03Z</time>
      </trkpt>
      <trkpt lat="45.96964" lon="5.51939">
        <ele>910.865</ele>
        <time>2019-04-27T14:51:10Z</time>
      </trkpt>
      <trkpt lat="45.97092" lon="5.51936">
        <ele>918.011</ele>
        <time>2019-04-27T14:51:24Z</time>
      </trkpt>
      <trkpt lat="45.97198" lon="5.52022">
        <ele>916.908</ele>
        <time>2019-04-27T14:51:41Z</time>
      </trkpt>
      <trkpt lat="45.97396" lon="5.52092">
        <ele>918.454</ele>
        <time>2019-04-27T14:53:29Z</time>
      </trkpt>
      <trkpt lat="45.97807" lon="5.52122">
        <ele>925.176</ele>
        <time>2019-04-27T14:53:54Z</time>
      </trkpt>
      <trkpt lat="45.979" lon="5.52065">
        <ele>940.148</ele>
        <time>2019-04-27T14:54:02Z</time>
      </trkpt>
      <trkpt lat="45.97912" lon="5.51941">
        <ele>952.875</ele>
        <time>2019-04-27T14:54:13Z</time>
      </trkpt>
      <trkpt lat="45.98131" lon="5.51869">
        <ele>925.971</ele>
        <time>2019-04-27T14:54:39Z</time>
      </trkpt>
      <trkpt lat="45.98199" lon="5.51787">
        <ele>910.558</ele>
        <time>2019-04-27T14:54:52Z</time>
      </trkpt>
      <trkpt lat="45.98261" lon="5.51539">
        <ele>890.963</ele>
        <time>2019-04-27T14:55:14Z</time>
      </trkpt>
      <trkpt lat="45.98203" lon="5.51472">
        <ele>886.352</ele>
        <time>2019-04-27T14:55:24Z</time>
      </trkpt>
      <trkpt lat="45.98274" lon="5.51249">
        <ele>865.958</ele>
        <time>2019-04-27T14:55:44Z</time>
      </trkpt>
      <trkpt lat="45.98147" lon="5.51028">
        <ele>846.452</ele>
        <time>2019-04-27T14:56:10Z</time>
      </trkpt>
      <trkpt lat="45.98175" lon="5.50776">
        <ele>831.817</ele>
        <time>2019-04-27T14:56:34Z</time>
      </trkpt>
      <trkpt lat="45.98144" lon="5.50728">
        <ele>828.308</ele>
        <time>2019-04-27T14:56:41Z</time>
      </trkpt>
      <trkpt lat="45.98009" lon="5.50693">
        <ele>822.698</ele>
        <time>2019-04-27T14:56:55Z</time>
      </trkpt>
      <trkpt lat="45.98188" lon="5.50391">
        <ele>838.89</ele>
        <time>2019-04-27T14:57:18Z</time>
      </trkpt>
      <trkpt lat="45.98336" lon="5.50289">
        <ele>862.452</ele>
        <time>2019-04-27T14:57:32Z</time>
      </trkpt>
      <trkpt lat="45.98382" lon="5.50177">
        <ele>870.159</ele>
        <time>2019-04-27T14:57:40Z</time>
      </trkpt>
      <trkpt lat="45.98357" lon="5.49979">
        <ele>867.875</ele>
        <time>2019-04-27T14:57:52Z</time>
      </trkpt>
      <trkpt lat="45.98242" lon="5.49696">
        <ele>852.762</ele>
        <time>2019-04-27T14:58:14Z</time>
      </trkpt>
      <trkpt lat="45.98256" lon="5.49643">
        <ele>856.487</ele>
        <time>2019-04-27T14:58:22Z</time>
      </trkpt>
      <trkpt lat="45.98405" lon="5.49622">
        <ele>852.996</ele>
        <time>2019-04-27T14:58:38Z</time>
      </trkpt>
      <trkpt lat="45.98578" lon="5.49691">
        <ele>854.396</ele>
        <time>2019-04-27T14:59:06Z</time>
      </trkpt>
      <trkpt lat="45.98742" lon="5.4982">
        <ele>843.731</ele>
        <time>2019-04-27T15:02:26Z</time>
      </trkpt>
      <trkpt lat="45.98745" lon="5.49786">
        <ele>843.324</ele>
        <time>2019-04-27T15:03:55Z</time>
      </trkpt>
      <trkpt lat="45.9876" lon="5.49816">
        <ele>842.508</ele>
        <time>2019-04-27T15:04:58Z</time>
      </trkpt>
      <trkpt lat="45.98735" lon="5.49802">
        <ele>844.032</ele>
        <time>2019-04-27T15:09:10Z</time>
      </trkpt>
      <trkpt lat="45.98761" lon="5.49817">
        <ele>843.274</ele>
        <time>2019-04-27T15:09:32Z</time>
      </trkpt>
      <trkpt lat="45.98754" lon="5.49902">
        <ele>830.636</ele>
        <time>2019-04-27T15:09:52Z</time>
      </trkpt>
      <trkpt lat="45.98976" lon="5.50028">
        <ele>822.823</ele>
        <time>2019-04-27T15:10:11Z</time>
      </trkpt>
      <trkpt lat="45.99425" lon="5.50184">
        <ele>804.749</ele>
        <time>2019-04-27T15:10:38Z</time>
      </trkpt>
      <trkpt lat="45.99784" lon="5.50105">
        <ele>788.066</ele>
        <time>2019-04-27T15:11:04Z</time>
      </trkpt>
      <trkpt lat="45.99812" lon="5.50056">
        <ele>787.071</ele>
        <time>2019-04-27T15:11:09Z</time>
      </trkpt>
      <trkpt lat="45.99922" lon="5.50024">
        <ele>782.28</ele>
        <time>2019-04-27T15:11:50Z</time>
      </trkpt>
      <trkpt lat="46.00008" lon="5.49941">
        <ele>776.841</ele>
        <time>2019-04-27T15:12:03Z</time>
      </trkpt>
      <trkpt lat="46.00014" lon="5.49836">
        <ele>778.381</ele>
        <time>2019-04-27T15:12:12Z</time>
      </trkpt>
      <trkpt lat="46.00271" lon="5.49761">
        <ele>786.909</ele>
        <time>2019-04-27T15:12:32Z</time>
      </trkpt>
      <trkpt lat="46.00276" lon="5.49702">
        <ele>781.808</ele>
        <time>2019-04-27T15:12:39Z</time>
      </trkpt>
      <trkpt lat="46.00277" lon="5.4983">
        <ele>767.847</ele>
        <time>2019-04-27T15:12:53Z</time>
      </trkpt>
      <trkpt lat="46.00376" lon="5.49763">
        <ele>728.579</ele>
        <time>2019-04-27T15:13:29Z</time>
      </trkpt>
      <trkpt lat="46.0038" lon="5.49689">
        <ele>711.091</ele>
        <time>2019-04-27T15:13:49Z</time>
      </trkpt>
      <trkpt lat="46.00431" lon="5.49643">
        <ele>701.878</ele>
        <time>2019-04-27T15:13:59Z</time>
      </trkpt>
      <trkpt lat="46.00517" lon="5.49652">
        <ele>696.994</ele>
        <time>2019-04-27T15:14:14Z</time>
      </trkpt>
      <trkpt lat="46.00394" lon="5.49577">
        <ele>697.011</ele>
        <time>2019-04-27T15:14:34Z</time>
      </trkpt>
      <trkpt lat="46.00462" lon="5.49367">
        <ele>671.216</ele>
        <time>2019-04-27T15:15:00Z</time>
      </trkpt>
      <trkpt lat="46.00413" lon="5.49172">
        <ele>641.225</ele>
        <time>2019-04-27T15:15:23Z</time>
      </trkpt>
      <trkpt lat="46.00436" lon="5.49049">
        <ele>620.449</ele>
        <time>2019-04-27T15:15:32Z</time>
      </trkpt>
      <trkpt lat="46.00401" lon="5.48971">
        <ele>603.602</ele>
        <time>2019-04-27T15:15:42Z</time>
      </trkpt>
      <trkpt lat="46.00306" lon="5.48934">
        <ele>581.322</ele>
        <time>2019-04-27T15:16:02Z</time>
      </trkpt>
      <trkpt lat="46.00337" lon="5.48845">
        <ele>580.908</ele>
        <time>2019-04-27T15:16:07Z</time>
      </trkpt>
      <trkpt lat="46.00579" lon="5.48637">
        <ele>593.437</ele>
        <time>2019-04-27T15:16:28Z</time>
      </trkpt>
      <trkpt lat="46.006" lon="5.48524">
        <ele>596.129</ele>
        <time>2019-04-27T15:16:35Z</time>
      </trkpt>
      <trkpt lat="46.00576" lon="5.48519">
        <ele>593.331</ele>
        <time>2019-04-27T15:17:17Z</time>
      </trkpt>
      <trkpt lat="46.00486" lon="5.48747">
        <ele>594.068</ele>
        <time>2019-04-27T15:17:30Z</time>
      </trkpt>
      <trkpt lat="46.00283" lon="5.48927">
        <ele>582.914</ele>
        <time>2019-04-27T15:17:45Z</time>
      </trkpt>
      <trkpt lat="46.00319" lon="5.4896">
        <ele>582.721</ele>
        <time>2019-04-27T15:17:46Z</time>
      </trkpt>
      <trkpt lat="46.00299" lon="5.49021">
        <ele>582.736</ele>
        <time>2019-04-27T15:17:50Z</time>
      </trkpt>
      <trkpt lat="46.00201" lon="5.49058">
        <ele>580.585</ele>
        <time>2019-04-27T15:17:56Z</time>
      </trkpt>
      <trkpt lat="46.00041" lon="5.49">
        <ele>578.956</ele>
        <time>2019-04-27T15:18:04Z</time>
      </trkpt>
      <trkpt lat="45.99897" lon="5.49029">
        <ele>572.259</ele>
        <time>2019-04-27T15:18:12Z</time>
      </trkpt>
      <trkpt lat="45.99781" lon="5.49">
        <ele>567.714</ele>
        <time>2019-04-27T15:18:19Z</time>
      </trkpt>
      <trkpt lat="45.99653" lon="5.48755">
        <ele>554.108</ele>
        <time>2019-04-27T15:18:43Z</time>
      </trkpt>
      <trkpt lat="45.99609" lon="5.48804">
        <ele>552.148</ele>
        <time>2019-04-27T15:18:59Z</time>
      </trkpt>
      <trkpt lat="45.99471" lon="5.48832">
        <ele>573.84</ele>
        <time>2019-04-27T15:19:22Z</time>
      </trkpt>
      <trkpt lat="45.9937" lon="5.48797">
        <ele>585.932</ele>
        <time>2019-04-27T15:19:34Z</time>
      </trkpt>
      <trkpt lat="45.9929" lon="5.48833">
        <ele>586.859</ele>
        <time>2019-04-27T15:19:42Z</time>
      </trkpt>
      <trkpt lat="45.99233" lon="5.48802">
        <ele>590.675</ele>
        <time>2019-04-27T15:19:48Z</time>
      </trkpt>
      <trkpt lat="45.99144" lon="5.48821">
        <ele>596.262</ele>
        <time>2019-04-27T15:19:56Z</time>
      </trkpt>
      <trkpt lat="45.98754" lon="5.4864">
        <ele>624.127</ele>
        <time>2019-04-27T15:20:29Z</time>
      </trkpt>
      <trkpt lat="45.98551" lon="5.48474">
        <ele>616.216</ele>
        <time>2019-04-27T15:20:53Z</time>
      </trkpt>
      <trkpt lat="45.98289" lon="5.4836">
        <ele>601.749</ele>
        <time>2019-04-27T15:22:23Z</time>
      </trkpt>
      <trkpt lat="45.98173" lon="5.4835">
        <ele>574.102</ele>
        <time>2019-04-27T15:22:41Z</time>
      </trkpt>
      <trkpt lat="45.98132" lon="5.48381">
        <ele>562.322</ele>
        <time>2019-04-27T15:22:55Z</time>
      </trkpt>
      <trkpt lat="45.97898" lon="5.48315">
        <ele>518.208</ele>
        <time>2019-04-27T15:23:43Z</time>
      </trkpt>
      <trkpt lat="45.97885" lon="5.4826">
        <ele>504.227</ele>
        <time>2019-04-27T15:23:56Z</time>
      </trkpt>
      <trkpt lat="45.97777" lon="5.48214">
        <ele>478.079</ele>
        <time>2019-04-27T15:24:17Z</time>
      </trkpt>
      <trkpt lat="45.97742" lon="5.48066">
        <ele>445.371</ele>
        <time>2019-04-27T15:24:41Z</time>
      </trkpt>
      <trkpt lat="45.9768" lon="5.47974">
        <ele>433.388</ele>
        <time>2019-04-27T15:24:51Z</time>
      </trkpt>
      <trkpt lat="45.97682" lon="5.47921">
        <ele>418.384</ele>
        <time>2019-04-27T15:25:30Z</time>
      </trkpt>
      <trkpt lat="45.97721" lon="5.47887">
        <ele>414.331</ele>
        <time>2019-04-27T15:25:40Z</time>
      </trkpt>
      <trkpt lat="45.97754" lon="5.47745">
        <ele>419.056</ele>
        <time>2019-04-27T15:25:53Z</time>
      </trkpt>
      <trkpt lat="45.97747" lon="5.47611">
        <ele>426.575</ele>
        <time>2019-04-27T15:26:02Z</time>
      </trkpt>
      <trkpt lat="45.97674" lon="5.47422">
        <ele>425.467</ele>
        <time>2019-04-27T15:26:24Z</time>
      </trkpt>
      <trkpt lat="45.9774" lon="5.47368">
        <ele>402.681</ele>
        <time>2019-04-27T15:26:37Z</time>
      </trkpt>
      <trkpt lat="45.97724" lon="5.47341">
        <ele>395.919</ele>
        <time>2019-04-27T15:26:40Z</time>
      </trkpt>
      <trkpt lat="45.97834" lon="5.47349">
        <ele>399.808</ele>
        <time>2019-04-27T15:26:55Z</time>
      </trkpt>
      <trkpt lat="45.97871" lon="5.47312">
        <ele>404.779</ele>
        <time>2019-04-27T15:27:00Z</time>
      </trkpt>
      <trkpt lat="45.98018" lon="5.47326">
        <ele>421.081</ele>
        <time>2019-04-27T15:27:14Z</time>
      </trkpt>
      <trkpt lat="45.98086" lon="5.47215">
        <ele>427.663</ele>
        <time>2019-04-27T15:27:23Z</time>
      </trkpt>
      <trkpt lat="45.98355" lon="5.47176">
        <ele>461.19</ele>
        <time>2019-04-27T15:27:59Z</time>
      </trkpt>
      <trkpt lat="45.98451" lon="5.47125">
        <ele>469.666</ele>
        <time>2019-04-27T15:28:11Z</time>
      </trkpt>
      <trkpt lat="45.99148" lon="5.47071">
        <ele>553.353</ele>
        <time>2019-04-27T15:29:36Z</time>
      </trkpt>
      <trkpt lat="45.99194" lon="5.47125">
        <ele>558.878</ele>
        <time>2019-04-27T15:29:42Z</time>
      </trkpt>
      <trkpt lat="45.9933" lon="5.47162">
        <ele>569.327</ele>
        <time>2019-04-27T15:29:59Z</time>
      </trkpt>
      <trkpt lat="45.99249" lon="5.47076">
        <ele>581.712</ele>
        <time>2019-04-27T15:30:14Z</time>
      </trkpt>
      <trkpt lat="45.99261" lon="5.47045">
        <ele>587.132</ele>
        <time>2019-04-27T15:30:21Z</time>
      </trkpt>
      <trkpt lat="45.99462" lon="5.47129">
        <ele>627.805</ele>
        <time>2019-04-27T15:30:59Z</time>
      </trkpt>
      <trkpt lat="45.99556" lon="5.47252">
        <ele>645.108</ele>
        <time>2019-04-27T15:31:10Z</time>
      </trkpt>
      <trkpt lat="45.9957" lon="5.47318">
        <ele>648.654</ele>
        <time>2019-04-27T15:31:18Z</time>
      </trkpt>
      <trkpt lat="45.9964" lon="5.47367">
        <ele>658.866</ele>
        <time>2019-04-27T15:31:25Z</time>
      </trkpt>
      <trkpt lat="45.99905" lon="5.47399">
        <ele>688.218</ele>
        <time>2019-04-27T15:31:44Z</time>
      </trkpt>
      <trkpt lat="46.00021" lon="5.47498">
        <ele>705.615</ele>
        <time>2019-04-27T15:31:57Z</time>
      </trkpt>
      <trkpt lat="46.00348" lon="5.47477">
        <ele>725.341</ele>
        <time>2019-04-27T15:32:21Z</time>
      </trkpt>
      <trkpt lat="46.00317" lon="5.47477">
        <ele>722.968</ele>
        <time>2019-04-27T15:33:37Z</time>
      </trkpt>
      <trkpt lat="46.00425" lon="5.47598">
        <ele>716.133</ele>
        <time>2019-04-27T15:34:01Z</time>
      </trkpt>
      <trkpt lat="46.00511" lon="5.47768">
        <ele>715.682</ele>
        <time>2019-04-27T15:34:11Z</time>
      </trkpt>
      <trkpt lat="46.00434" lon="5.47925">
        <ele>712.315</ele>
        <time>2019-04-27T15:34:21Z</time>
      </trkpt>
      <trkpt lat="46.00434" lon="5.48036">
        <ele>707.265</ele>
        <time>2019-04-27T15:34:28Z</time>
      </trkpt>
      <trkpt lat="46.00565" lon="5.48058">
        <ele>712.411</ele>
        <time>2019-04-27T15:34:43Z</time>
      </trkpt>
      <trkpt lat="46.00826" lon="5.4789">
        <ele>720.208</ele>
        <time>2019-04-27T15:35:09Z</time>
      </trkpt>
      <trkpt lat="46.01084" lon="5.47912">
        <ele>719.964</ele>
        <time>2019-04-27T15:35:36Z</time>
      </trkpt>
      <trkpt lat="46.0114" lon="5.47972">
        <ele>718.796</ele>
        <time>2019-04-27T15:35:44Z</time>
      </trkpt>
      <trkpt lat="46.01352" lon="5.47974">
        <ele>725.538</ele>
        <time>2019-04-27T15:36:03Z</time>
      </trkpt>
      <trkpt lat="46.01345" lon="5.47886">
        <ele>720.285</ele>
        <time>2019-04-27T15:36:14Z</time>
      </trkpt>
      <trkpt lat="46.01431" lon="5.47797">
        <ele>713.031</ele>
        <time>2019-04-27T15:36:26Z</time>
      </trkpt>
      <trkpt lat="46.01596" lon="5.47714">
        <ele>715.248</ele>
        <time>2019-04-27T15:36:39Z</time>
      </trkpt>
      <trkpt lat="46.01684" lon="5.47588">
        <ele>719.223</ele>
        <time>2019-04-27T15:36:50Z</time>
      </trkpt>
      <trkpt lat="46.01865" lon="5.47516">
        <ele>722.092</ele>
        <time>2019-04-27T15:37:04Z</time>
      </trkpt>
      <trkpt lat="46.02005" lon="5.47637">
        <ele>727.612</ele>
        <time>2019-04-27T15:37:16Z</time>
      </trkpt>
      <trkpt lat="46.02143" lon="5.47629">
        <ele>739.532</ele>
        <time>2019-04-27T15:37:23Z</time>
      </trkpt>
      <trkpt lat="46.02243" lon="5.47688">
        <ele>746.005</ele>
        <time>2019-04-27T15:37:29Z</time>
      </trkpt>
      <trkpt lat="46.02356" lon="5.47696">
        <ele>758.108</ele>
        <time>2019-04-27T15:37:35Z</time>
      </trkpt>
      <trkpt lat="46.02668" lon="5.47869">
        <ele>780.594</ele>
        <time>2019-04-27T15:37:56Z</time>
      </trkpt>
      <trkpt lat="46.02693" lon="5.47728">
        <ele>785.226</ele>
        <time>2019-04-27T15:38:03Z</time>
      </trkpt>
      <trkpt lat="46.02631" lon="5.476">
        <ele>784.628</ele>
        <time>2019-04-27T15:38:13Z</time>
      </trkpt>
      <trkpt lat="46.02692" lon="5.47498">
        <ele>788.755</ele>
        <time>2019-04-27T15:38:20Z</time>
      </trkpt>
      <trkpt lat="46.02669" lon="5.47392">
        <ele>786.291</ele>
        <time>2019-04-27T15:38:27Z</time>
      </trkpt>
      <trkpt lat="46.02853" lon="5.47221">
        <ele>782.598</ele>
        <time>2019-04-27T15:38:44Z</time>
      </trkpt>
      <trkpt lat="46.02938" lon="5.47326">
        <ele>774.373</ele>
        <time>2019-04-27T15:38:52Z</time>
      </trkpt>
      <trkpt lat="46.03014" lon="5.47327">
        <ele>760.582</ele>
        <time>2019-04-27T15:38:58Z</time>
      </trkpt>
      <trkpt lat="46.03112" lon="5.47244">
        <ele>750.257</ele>
        <time>2019-04-27T15:39:07Z</time>
      </trkpt>
      <trkpt lat="46.03274" lon="5.47015">
        <ele>727.9</ele>
        <time>2019-04-27T15:39:21Z</time>
      </trkpt>
      <trkpt lat="46.0354" lon="5.46932">
        <ele>689.52</ele>
        <time>2019-04-27T15:39:43Z</time>
      </trkpt>
      <trkpt lat="46.03532" lon="5.46905">
        <ele>678.708</ele>
        <time>2019-04-27T15:39:49Z</time>
      </trkpt>
      <trkpt lat="46.03537" lon="5.46993">
        <ele>674.898</ele>
        <time>2019-04-27T15:39:57Z</time>
      </trkpt>
      <trkpt lat="46.03449" lon="5.47102">
        <ele>668.46</ele>
        <time>2019-04-27T15:40:11Z</time>
      </trkpt>
      <trkpt lat="46.03576" lon="5.47146">
        <ele>675.482</ele>
        <time>2019-04-27T15:40:31Z</time>
      </trkpt>
      <trkpt lat="46.03669" lon="5.47259">
        <ele>690.739</ele>
        <time>2019-04-27T15:40:46Z</time>
      </trkpt>
      <trkpt lat="46.03845" lon="5.46969">
        <ele>684.985</ele>
        <time>2019-04-27T15:41:07Z</time>
      </trkpt>
      <trkpt lat="46.03957" lon="5.46983">
        <ele>682.872</ele>
        <time>2019-04-27T15:41:17Z</time>
      </trkpt>
      <trkpt lat="46.04029" lon="5.4707">
        <ele>682.097</ele>
        <time>2019-04-27T15:41:26Z</time>
      </trkpt>
      <trkpt lat="46.041" lon="5.47326">
        <ele>665.836</ele>
        <time>2019-04-27T15:41:42Z</time>
      </trkpt>
      <trkpt lat="46.0411" lon="5.47557">
        <ele>643.894</ele>
        <time>2019-04-27T15:41:59Z</time>
      </trkpt>
      <trkpt lat="46.03985" lon="5.47733">
        <ele>623.057</ele>
        <time>2019-04-27T15:42:16Z</time>
      </trkpt>
      <trkpt lat="46.04111" lon="5.47703">
        <ele>612.122</ele>
        <time>2019-04-27T15:42:30Z</time>
      </trkpt>
      <trkpt lat="46.04183" lon="5.47627">
        <ele>605.308</ele>
        <time>2019-04-27T15:42:38Z</time>
      </trkpt>
      <trkpt lat="46.04282" lon="5.47761">
        <ele>590.092</ele>
        <time>2019-04-27T15:42:52Z</time>
      </trkpt>
      <trkpt lat="46.04225" lon="5.47811">
        <ele>593.514</ele>
        <time>2019-04-27T15:42:56Z</time>
      </trkpt>
      <trkpt lat="46.0419" lon="5.47932">
        <ele>610.646</ele>
        <time>2019-04-27T15:43:04Z</time>
      </trkpt>
      <trkpt lat="46.04283" lon="5.48059">
        <ele>637.293</ele>
        <time>2019-04-27T15:48:15Z</time>
      </trkpt>
      <trkpt lat="46.04614" lon="5.48096">
        <ele>631.899</ele>
        <time>2019-04-27T15:48:49Z</time>
      </trkpt>
      <trkpt lat="46.04678" lon="5.48056">
        <ele>624.236</ele>
        <time>2019-04-27T15:48:56Z</time>
      </trkpt>
      <trkpt lat="46.04768" lon="5.48064">
        <ele>621.511</ele>
        <time>2019-04-27T15:49:06Z</time>
      </trkpt>
      <trkpt lat="46.0484" lon="5.47974">
        <ele>619.35</ele>
        <time>2019-04-27T15:49:45Z</time>
      </trkpt>
      <trkpt lat="46.04904" lon="5.47989">
        <ele>610.732</ele>
        <time>2019-04-27T15:50:39Z</time>
      </trkpt>
      <trkpt lat="46.05035" lon="5.47875">
        <ele>586.292</ele>
        <time>2019-04-27T15:51:07Z</time>
      </trkpt>
      <trkpt lat="46.05063" lon="5.47933">
        <ele>573.211</ele>
        <time>2019-04-27T15:51:17Z</time>
      </trkpt>
      <trkpt lat="46.05233" lon="5.47952">
        <ele>528.108</ele>
        <time>2019-04-27T15:51:51Z</time>
      </trkpt>
      <trkpt lat="46.05252" lon="5.47992">
        <ele>515.566</ele>
        <time>2019-04-27T15:51:58Z</time>
      </trkpt>
      <trkpt lat="46.05377" lon="5.48026">
        <ele>472.168</ele>
        <time>2019-04-27T15:52:59Z</time>
      </trkpt>
      <trkpt lat="46.05415" lon="5.47996">
        <ele>459.79</ele>
        <time>2019-04-27T15:53:11Z</time>
      </trkpt>
      <trkpt lat="46.05409" lon="5.481">
        <ele>444.487</ele>
        <time>2019-04-27T15:53:26Z</time>
      </trkpt>
      <trkpt lat="46.05443" lon="5.48136">
        <ele>429.813</ele>
        <time>2019-04-27T15:53:38Z</time>
      </trkpt>
      <trkpt lat="46.05479" lon="5.48117">
        <ele>425.21</ele>
        <time>2019-04-27T15:53:44Z</time>
      </trkpt>
      <trkpt lat="46.05624" lon="5.47775">
        <ele>390.435</ele>
        <time>2019-04-27T15:54:16Z</time>
      </trkpt>
      <trkpt lat="46.05658" lon="5.4777">
        <ele>387.184</ele>
        <time>2019-04-27T15:54:19Z</time>
      </trkpt>
      <trkpt lat="46.05758" lon="5.47587">
        <ele>378.061</ele>
        <time>2019-04-27T15:54:42Z</time>
      </trkpt>
      <trkpt lat="46.05846" lon="5.47585">
        <ele>370.221</ele>
        <time>2019-04-27T15:54:50Z</time>
      </trkpt>
      <trkpt lat="46.0595" lon="5.47373">
        <ele>360.513</ele>
        <time>2019-04-27T15:55:12Z</time>
      </trkpt>
      <trkpt lat="46.0601" lon="5.47119">
        <ele>349.208</ele>
        <time>2019-04-27T15:55:35Z</time>
      </trkpt>
      <trkpt lat="46.06053" lon="5.47084">
        <ele>355.689</ele>
        <time>2019-04-27T15:55:48Z</time>
      </trkpt>
      <trkpt lat="46.0616" lon="5.47127">
        <ele>364.611</ele>
        <time>2019-04-27T15:56:23Z</time>
      </trkpt>
      <trkpt lat="46.06382" lon="5.47378">
        <ele>436.183</ele>
        <time>2019-04-27T15:57:40Z</time>
      </trkpt>
      <trkpt lat="46.06131" lon="5.47314">
        <ele>465.79</ele>
        <time>2019-04-27T15:58:53Z</time>
      </trkpt>
      <trkpt lat="46.06288" lon="5.47469">
        <ele>483.516</ele>
        <time>2019-04-27T15:59:21Z</time>
      </trkpt>
      <trkpt lat="46.06459" lon="5.4772">
        <ele>520.473</ele>
        <time>2019-04-27T16:00:02Z</time>
      </trkpt>
      <trkpt lat="46.06594" lon="5.47674">
        <ele>537.368</ele>
        <time>2019-04-27T16:03:32Z</time>
      </trkpt>
      <trkpt lat="46.0672" lon="5.47751">
        <ele>554.597</ele>
        <time>2019-04-27T16:03:48Z</time>
      </trkpt>
      <trkpt lat="46.06604" lon="5.47759">
        <ele>565.491</ele>
        <time>2019-04-27T16:04:04Z</time>
      </trkpt>
      <trkpt lat="46.06634" lon="5.48079">
        <ele>589.381</ele>
        <time>2019-04-27T16:04:25Z</time>
      </trkpt>
      <trkpt lat="46.06726" lon="5.48233">
        <ele>593.719</ele>
        <time>2019-04-27T16:04:36Z</time>
      </trkpt>
      <trkpt lat="46.06769" lon="5.4816">
        <ele>582.208</ele>
        <time>2019-04-27T16:04:53Z</time>
      </trkpt>
      <trkpt lat="46.0685" lon="5.48124">
        <ele>556.812</ele>
        <time>2019-04-27T16:05:24Z</time>
      </trkpt>
      <trkpt lat="46.06858" lon="5.48057">
        <ele>535.814</ele>
        <time>2019-04-27T16:05:43Z</time>
      </trkpt>
      <trkpt lat="46.07013" lon="5.48071">
        <ele>486.366</ele>
        <time>2019-04-27T16:06:17Z</time>
      </trkpt>
      <trkpt lat="46.07044" lon="5.48017">
        <ele>468.353</ele>
        <time>2019-04-27T16:06:30Z</time>
      </trkpt>
      <trkpt lat="46.07085" lon="5.48039">
        <ele>452.849</ele>
        <time>2019-04-27T16:06:41Z</time>
      </trkpt>
      <trkpt lat="46.07145" lon="5.48181">
        <ele>439.836</ele>
        <time>2019-04-27T16:06:53Z</time>
      </trkpt>
      <trkpt lat="46.07111" lon="5.48391">
        <ele>433.691</ele>
        <time>2019-04-27T16:07:09Z</time>
      </trkpt>
      <trkpt lat="46.0716" lon="5.48447">
        <ele>436.07</ele>
        <time>2019-04-27T16:07:17Z</time>
      </trkpt>
      <trkpt lat="46.07121" lon="5.48494">
        <ele>438.285</ele>
        <time>2019-04-27T16:07:29Z</time>
      </trkpt>
      <trkpt lat="46.07196" lon="5.48754">
        <ele>487.089</ele>
        <time>2019-04-27T16:09:46Z</time>
      </trkpt>
      <trkpt lat="46.0718" lon="5.48733">
        <ele>486.417</ele>
        <time>2019-04-27T16:10:57Z</time>
      </trkpt>
      <trkpt lat="46.07177" lon="5.4878">
        <ele>493.708</ele>
        <time>2019-04-27T16:11:23Z</time>
      </trkpt>
      <trkpt lat="46.07186" lon="5.48728">
        <ele>493.781</ele>
        <time>2019-04-27T16:12:31Z</time>
      </trkpt>
      <trkpt lat="46.07183" lon="5.48767">
        <ele>489.513</ele>
        <time>2019-04-27T16:13:43Z</time>
      </trkpt>
      <trkpt lat="46.07197" lon="5.48741">
        <ele>485.085</ele>
        <time>2019-04-27T16:15:00Z</time>
      </trkpt>
      <trkpt lat="46.07228" lon="5.48836">
        <ele>503.832</ele>
        <time>2019-04-27T16:16:33Z</time>
      </trkpt>
      <trkpt lat="46.07233" lon="5.48799">
        <ele>503.318</ele>
        <time>2019-04-27T16:17:25Z</time>
      </trkpt>
      <trkpt lat="46.07266" lon="5.48877">
        <ele>514.435</ele>
        <time>2019-04-27T16:19:43Z</time>
      </trkpt>
      <trkpt lat="46.07206" lon="5.48895">
        <ele>537.93</ele>
        <time>2019-04-27T16:20:04Z</time>
      </trkpt>
      <trkpt lat="46.07186" lon="5.48964">
        <ele>568.019</ele>
        <time>2019-04-27T16:21:18Z</time>
      </trkpt>
      <trkpt lat="46.07233" lon="5.48991">
        <ele>586.635</ele>
        <time>2019-04-27T16:22:24Z</time>
      </trkpt>
      <trkpt lat="46.0717" lon="5.49035">
        <ele>613.886</ele>
        <time>2019-04-27T16:23:24Z</time>
      </trkpt>
      <trkpt lat="46.07145" lon="5.49117">
        <ele>639.314</ele>
        <time>2019-04-27T16:23:45Z</time>
      </trkpt>
      <trkpt lat="46.07099" lon="5.49133">
        <ele>649.808</ele>
        <time>2019-04-27T16:24:02Z</time>
      </trkpt>
      <trkpt lat="46.07085" lon="5.49184">
        <ele>658.186</ele>
        <time>2019-04-27T16:24:23Z</time>
      </trkpt>
      <trkpt lat="46.07178" lon="5.49297">
        <ele>697.118</ele>
        <time>2019-04-27T16:25:31Z</time>
      </trkpt>
      <trkpt lat="46.07156" lon="5.49296">
        <ele>697.08</ele>
        <time>2019-04-27T16:25:41Z</time>
      </trkpt>
      <trkpt lat="46.07191" lon="5.49406">
        <ele>704.757</ele>
        <time>2019-04-27T16:26:58Z</time>
      </trkpt>
      <trkpt lat="46.07344" lon="5.49584">
        <ele>759.153</ele>
        <time>2019-04-27T16:27:46Z</time>
      </trkpt>
      <trkpt lat="46.07387" lon="5.4955">
        <ele>791.53</ele>
        <time>2019-04-27T16:30:48Z</time>
      </trkpt>
      <trkpt lat="46.07354" lon="5.49551">
        <ele>784.665</ele>
        <time>2019-04-27T16:32:03Z</time>
      </trkpt>
      <trkpt lat="46.0737" lon="5.49522">
        <ele>794.064</ele>
        <time>2019-04-27T16:34:09Z</time>
      </trkpt>
      <trkpt lat="46.07361" lon="5.49565">
        <ele>785.294</ele>
        <time>2019-04-27T16:35:02Z</time>
      </trkpt>
      <trkpt lat="46.0736" lon="5.49507">
        <ele>791.757</ele>
        <time>2019-04-27T16:36:52Z</time>
      </trkpt>
      <trkpt lat="46.07382" lon="5.49526">
        <ele>797.822</ele>
        <time>2019-04-27T16:38:46Z</time>
      </trkpt>
      <trkpt lat="46.07405" lon="5.49492">
        <ele>809.908</ele>
        <time>2019-04-27T16:41:05Z</time>
      </trkpt>
      <trkpt lat="46.07549" lon="5.49698">
        <ele>852.152</ele>
        <time>2019-04-27T16:42:16Z</time>
      </trkpt>
      <trkpt lat="46.07551" lon="5.49812">
        <ele>862.844</ele>
        <time>2019-04-27T16:42:34Z</time>
      </trkpt>
      <trkpt lat="46.07604" lon="5.49921">
        <ele>870.776</ele>
        <time>2019-04-27T16:42:51Z</time>
      </trkpt>
      <trkpt lat="46.0786" lon="5.4984">
        <ele>885.173</ele>
        <time>2019-04-27T16:43:25Z</time>
      </trkpt>
      <trkpt lat="46.07973" lon="5.50003">
        <ele>880.059</ele>
        <time>2019-04-27T16:43:47Z</time>
      </trkpt>
      <trkpt lat="46.08069" lon="5.50021">
        <ele>878.426</ele>
        <time>2019-04-27T16:44:02Z</time>
      </trkpt>
      <trkpt lat="46.08137" lon="5.49987">
        <ele>877.261</ele>
        <time>2019-04-27T16:44:12Z</time>
      </trkpt>
      <trkpt lat="46.08621" lon="5.49965">
        <ele>836.52</ele>
        <time>2019-04-27T16:45:10Z</time>
      </trkpt>
      <trkpt lat="46.0869" lon="5.50085">
        <ele>831.778</ele>
        <time>2019-04-27T16:45:19Z</time>
      </trkpt>
      <trkpt lat="46.08775" lon="5.50124">
        <ele>820.733</ele>
        <time>2019-04-27T16:45:32Z</time>
      </trkpt>
      <trkpt lat="46.08719" lon="5.50206">
        <ele>821.026</ele>
        <time>2019-04-27T16:45:44Z</time>
      </trkpt>
      <trkpt lat="46.08706" lon="5.50347">
        <ele>824.208</ele>
        <time>2019-04-27T16:45:57Z</time>
      </trkpt>
      <trkpt lat="46.09051" lon="5.50735">
        <ele>815.69</ele>
        <time>2019-04-27T16:46:40Z</time>
      </trkpt>
      <trkpt lat="46.0908" lon="5.5102">
        <ele>809.312</ele>
        <time>2019-04-27T16:46:57Z</time>
      </trkpt>
      <trkpt lat="46.0902" lon="5.51213">
        <ele>795.724</ele>
        <time>2019-04-27T16:47:24Z</time>
      </trkpt>
      <trkpt lat="46.09013" lon="5.51095">
        <ele>805.091</ele>
        <time>2019-04-27T16:47:38Z</time>
      </trkpt>
      <trkpt lat="46.08929" lon="5.50918">
        <ele>841.787</ele>
        <time>2019-04-27T16:48:09Z</time>
      </trkpt>
      <trkpt lat="46.08703" lon="5.50826">
        <ele>891.744</ele>
        <time>2019-04-27T16:48:35Z</time>
      </trkpt>
      <trkpt lat="46.0866" lon="5.50771">
        <ele>900.659</ele>
        <time>2019-04-27T16:48:43Z</time>
      </trkpt>
      <trkpt lat="46.0847" lon="5.5075">
        <ele>935.718</ele>
        <time>2019-04-27T16:49:02Z</time>
      </trkpt>
      <trkpt lat="46.08276" lon="5.50638">
        <ele>956.639</ele>
        <time>2019-04-27T16:51:56Z</time>
      </trkpt>
      <trkpt lat="46.0818" lon="5.50762">
        <ele>955.501</ele>
        <time>2019-04-27T16:52:08Z</time>
      </trkpt>
      <trkpt lat="46.07732" lon="5.50691">
        <ele>978.521</ele>
        <time>2019-04-27T16:52:35Z</time>
      </trkpt>
      <trkpt lat="46.07249" lon="5.50873">
        <ele>966.608</ele>
        <time>2019-04-27T16:53:02Z</time>
      </trkpt>
      <trkpt lat="46.07122" lon="5.50878">
        <ele>961.266</ele>
        <time>2019-04-27T16:53:09Z</time>
      </trkpt>
      <trkpt lat="46.06615" lon="5.51039">
        <ele>1008.178</ele>
        <time>2019-04-27T16:54:00Z</time>
      </trkpt>
      <trkpt lat="46.06417" lon="5.51226">
        <ele>992.41</ele>
        <time>2019-04-27T16:54:16Z</time>
      </trkpt>
      <trkpt lat="46.0607" lon="5.51303">
        <ele>979.177</ele>
        <time>2019-04-27T16:54:36Z</time>
      </trkpt>
      <trkpt lat="46.05996" lon="5.51274">
        <ele>977.083</ele>
        <time>2019-04-27T16:54:41Z</time>
      </trkpt>
      <trkpt lat="46.05822" lon="5.51308">
        <ele>981.22</ele>
        <time>2019-04-27T16:54:52Z</time>
      </trkpt>
      <trkpt lat="46.05601" lon="5.51216">
        <ele>955.495</ele>
        <time>2019-04-27T16:55:08Z</time>
      </trkpt>
      <trkpt lat="46.05634" lon="5.51298">
        <ele>943.634</ele>
        <time>2019-04-27T16:55:20Z</time>
      </trkpt>
      <trkpt lat="46.05527" lon="5.51508">
        <ele>880.671</ele>
        <time>2019-04-27T16:56:07Z</time>
      </trkpt>
      <trkpt lat="46.05351" lon="5.51718">
        <ele>817.541</ele>
        <time>2019-04-27T16:56:43Z</time>
      </trkpt>
      <trkpt lat="46.05186" lon="5.51774">
        <ele>776.415</ele>
        <time>2019-04-27T16:57:12Z</time>
      </trkpt>
      <trkpt lat="46.05291" lon="5.51922">
        <ele>732.208</ele>
        <time>2019-04-27T16:57:35Z</time>
      </trkpt>
      <trkpt lat="46.05158" lon="5.51967">
        <ele>712.56</ele>
        <time>2019-04-27T16:57:52Z</time>
      </trkpt>
      <trkpt lat="46.05285" lon="5.52012">
        <ele>699.412</ele>
        <time>2019-04-27T16:58:03Z</time>
      </trkpt>
      <trkpt lat="46.05271" lon="5.52287">
        <ele>666.244</ele>
        <time>2019-04-27T16:58:25Z</time>
      </trkpt>
      <trkpt lat="46.05323" lon="5.52491">
        <ele>661.061</ele>
        <time>2019-04-27T16:58:40Z</time>
      </trkpt>
      <trkpt lat="46.0529" lon="5.52587">
        <ele>660.717</ele>
        <time>2019-04-27T16:58:47Z</time>
      </trkpt>
      <trkpt lat="46.0506" lon="5.52668">
        <ele>670.224</ele>
        <time>2019-04-27T16:59:04Z</time>
      </trkpt>
      <trkpt lat="46.05016" lon="5.52937">
        <ele>679.219</ele>
        <time>2019-04-27T16:59:20Z</time>
      </trkpt>
      <trkpt lat="46.04754" lon="5.52895">
        <ele>678.218</ele>
        <time>2019-04-27T16:59:35Z</time>
      </trkpt>
      <trkpt lat="46.0439" lon="5.53049">
        <ele>682.376</ele>
        <time>2019-04-27T16:59:56Z</time>
      </trkpt>
      <trkpt lat="46.04283" lon="5.53055">
        <ele>683.69</ele>
        <time>2019-04-27T17:00:01Z</time>
      </trkpt>
      <trkpt lat="46.04083" lon="5.5297">
        <ele>689.019</ele>
        <time>2019-04-27T17:00:12Z</time>
      </trkpt>
      <trkpt lat="46.03939" lon="5.52772">
        <ele>685.608</ele>
        <time>2019-04-27T17:00:25Z</time>
      </trkpt>
      <trkpt lat="46.0376" lon="5.52773">
        <ele>685.19</ele>
        <time>2019-04-27T17:00:46Z</time>
      </trkpt>
      <trkpt lat="46.03375" lon="5.53227">
        <ele>725.812</ele>
        <time>2019-04-27T17:01:24Z</time>
      </trkpt>
      <trkpt lat="46.03348" lon="5.53376">
        <ele>754.884</ele>
        <time>2019-04-27T17:01:35Z</time>
      </trkpt>
      <trkpt lat="46.03082" lon="5.53862">
        <ele>847.021</ele>
        <time>2019-04-27T17:02:12Z</time>
      </trkpt>
      <trkpt lat="46.02996" lon="5.53946">
        <ele>863.357</ele>
        <time>2019-04-27T17:02:21Z</time>
      </trkpt>
      <trkpt lat="46.02855" lon="5.54213">
        <ele>895.194</ele>
        <time>2019-04-27T17:02:56Z</time>
      </trkpt>
      <trkpt lat="46.02756" lon="5.54508">
        <ele>923.259</ele>
        <time>2019-04-27T17:03:38Z</time>
      </trkpt>
      <trkpt lat="46.02781" lon="5.54788">
        <ele>925.428</ele>
        <time>2019-04-27T17:04:08Z</time>
      </trkpt>
      <trkpt lat="46.02647" lon="5.55104">
        <ele>911.618</ele>
        <time>2019-04-27T17:04:52Z</time>
      </trkpt>
      <trkpt lat="46.0272" lon="5.55274">
        <ele>906.298</ele>
        <time>2019-04-27T17:05:06Z</time>
      </trkpt>
      <trkpt lat="46.0274" lon="5.55479">
        <ele>891.517</ele>
        <time>2019-04-27T17:05:16Z</time>
      </trkpt>
      <trkpt lat="46.027" lon="5.55829">
        <ele>900.008</ele>
        <time>2019-04-27T17:05:31Z</time>
      </trkpt>
      <trkpt lat="46.02511" lon="5.56307">
        <ele>899.644</ele>
        <time>2019-04-27T17:05:55Z</time>
      </trkpt>
      <trkpt lat="46.02272" lon="5.56516">
        <ele>899.296</ele>
        <time>2019-04-27T17:06:14Z</time>
      </trkpt>
      <trkpt lat="46.0215" lon="5.56555">
        <ele>904.948</ele>
        <time>2019-04-27T17:06:22Z</time>
      </trkpt>
      <trkpt lat="46.01757" lon="5.56456">
        <ele>917.885</ele>
        <time>2019-04-27T17:06:44Z</time>
      </trkpt>
      <trkpt lat="46.0152" lon="5.56171">
        <ele>910.771</ele>
        <time>2019-04-27T17:07:04Z</time>
      </trkpt>
      <trkpt lat="46.01495" lon="5.56272">
        <ele>893.538</ele>
        <time>2019-04-27T17:07:20Z</time>
      </trkpt>
      <trkpt lat="46.01392" lon="5.56323">
        <ele>859.983</ele>
        <time>2019-04-27T17:07:42Z</time>
      </trkpt>
      <trkpt lat="46.01277" lon="5.56509">
        <ele>840.142</ele>
        <time>2019-04-27T17:08:02Z</time>
      </trkpt>
      <trkpt lat="46.01271" lon="5.56594">
        <ele>841.298</ele>
        <time>2019-04-27T17:08:10Z</time>
      </trkpt>
      <trkpt lat="46.01213" lon="5.56665">
        <ele>840.415</ele>
        <time>2019-04-27T17:08:19Z</time>
      </trkpt>
      <trkpt lat="46.01183" lon="5.56769">
        <ele>840.626</ele>
        <time>2019-04-27T17:08:31Z</time>
      </trkpt>
      <trkpt lat="46.01223" lon="5.56896">
        <ele>834.308</ele>
        <time>2019-04-27T17:08:47Z</time>
      </trkpt>
      <trkpt lat="46.01146" lon="5.57104">
        <ele>820.412</ele>
        <time>2019-04-27T17:09:03Z</time>
      </trkpt>
      <trkpt lat="46.01303" lon="5.57195">
        <ele>816.874</ele>
        <time>2019-04-27T17:09:14Z</time>
      </trkpt>
      <trkpt lat="46.01384" lon="5.57353">
        <ele>813.616</ele>
        <time>2019-04-27T17:09:22Z</time>
      </trkpt>
      <trkpt lat="46.01461" lon="5.57743">
        <ele>815.623</ele>
        <time>2019-04-27T17:09:36Z</time>
      </trkpt>
      <trkpt lat="46.01616" lon="5.58026">
        <ele>805.959</ele>
        <time>2019-04-27T17:09:54Z</time>
      </trkpt>
      <trkpt lat="46.01398" lon="5.58076">
        <ele>810.146</ele>
        <time>2019-04-27T17:10:11Z</time>
      </trkpt>
      <trkpt lat="46.01003" lon="5.57895">
        <ele>817.961</ele>
        <time>2019-04-27T17:10:31Z</time>
      </trkpt>
      <trkpt lat="46.00899" lon="5.57731">
        <ele>824.38</ele>
        <time>2019-04-27T17:10:40Z</time>
      </trkpt>
      <trkpt lat="46.00822" lon="5.57688">
        <ele>824.525</ele>
        <time>2019-04-27T17:10:45Z</time>
      </trkpt>
      <trkpt lat="46.0073" lon="5.57714">
        <ele>826.726</ele>
        <time>2019-04-27T17:10:50Z</time>
      </trkpt>
      <trkpt lat="46.00641" lon="5.57839">
        <ele>826.208</ele>
        <time>2019-04-27T17:10:57Z</time>
      </trkpt>
      <trkpt lat="46.00596" lon="5.57849">
        <ele>823.908</ele>
        <time>2019-04-27T17:11:00Z</time>
      </trkpt>
      <trkpt lat="46.00293" lon="5.57706">
        <ele>825.645</ele>
        <time>2019-04-27T17:11:19Z</time>
      </trkpt>
      <trkpt lat="46.00256" lon="5.57389">
        <ele>821.577</ele>
        <time>2019-04-27T17:11:38Z</time>
      </trkpt>
      <trkpt lat="46.00171" lon="5.57302">
        <ele>816.449</ele>
        <time>2019-04-27T17:11:48Z</time>
      </trkpt>
      <trkpt lat="46.00123" lon="5.57043">
        <ele>816.866</ele>
        <time>2019-04-27T17:12:00Z</time>
      </trkpt>
      <trkpt lat="45.99978" lon="5.56791">
        <ele>819.372</ele>
        <time>2019-04-27T17:12:13Z</time>
      </trkpt>
      <trkpt lat="45.99896" lon="5.56753">
        <ele>821.079</ele>
        <time>2019-04-27T17:12:20Z</time>
      </trkpt>
      <trkpt lat="45.99749" lon="5.56545">
        <ele>816.754</ele>
        <time>2019-04-27T17:12:46Z</time>
      </trkpt>
      <trkpt lat="45.99441" lon="5.56474">
        <ele>816.813</ele>
        <time>2019-04-27T17:13:17Z</time>
      </trkpt>
      <trkpt lat="45.99364" lon="5.56373">
        <ele>818.428</ele>
        <time>2019-04-27T17:13:24Z</time>
      </trkpt>
      <trkpt lat="45.99324" lon="5.56245">
        <ele>821.389</ele>
        <time>2019-04-27T17:13:30Z</time>
      </trkpt>
      <trkpt lat="45.99242" lon="5.56139">
        <ele>824.917</ele>
        <time>2019-04-27T17:13:36Z</time>
      </trkpt>
      <trkpt lat="45.99188" lon="5.55967">
        <ele>830.708</ele>
        <time>2019-04-27T17:13:43Z</time>
      </trkpt>
      <trkpt lat="45.99055" lon="5.55897">
        <ele>826.065</ele>
        <time>2019-04-27T17:13:51Z</time>
      </trkpt>
      <trkpt lat="45.98905" lon="5.5573">
        <ele>828.397</ele>
        <time>2019-04-27T17:14:00Z</time>
      </trkpt>
      <trkpt lat="45.98772" lon="5.55809">
        <ele>823.729</ele>
        <time>2019-04-27T17:14:15Z</time>
      </trkpt>
      <trkpt lat="45.98578" lon="5.55713">
        <ele>820.636</ele>
        <time>2019-04-27T17:14:36Z</time>
      </trkpt>
      <trkpt lat="45.97886" lon="5.55866">
        <ele>819.322</ele>
        <time>2019-04-27T17:15:45Z</time>
      </trkpt>
      <trkpt lat="45.97761" lon="5.55852">
        <ele>811.099</ele>
        <time>2019-04-27T17:15:57Z</time>
      </trkpt>
      <trkpt lat="45.97688" lon="5.56119">
        <ele>792.354</ele>
        <time>2019-04-27T17:16:20Z</time>
      </trkpt>
      <trkpt lat="45.9763" lon="5.56113">
        <ele>791.853</ele>
        <time>2019-04-27T17:16:26Z</time>
      </trkpt>
      <trkpt lat="45.97535" lon="5.55995">
        <ele>790.119</ele>
        <time>2019-04-27T17:16:38Z</time>
      </trkpt>
      <trkpt lat="45.96972" lon="5.5593">
        <ele>786.609</ele>
        <time>2019-04-27T17:17:09Z</time>
      </trkpt>
      <trkpt lat="45.96958" lon="5.56039">
        <ele>785.119</ele>
        <time>2019-04-27T17:17:15Z</time>
      </trkpt>
      <trkpt lat="45.96993" lon="5.56219">
        <ele>787.508</ele>
        <time>2019-04-27T17:17:27Z</time>
      </trkpt>
      <trkpt lat="45.97092" lon="5.56254">
        <ele>791.954</ele>
        <time>2019-04-27T17:17:38Z</time>
      </trkpt>
      <trkpt lat="45.97147" lon="5.56328">
        <ele>794.076</ele>
        <time>2019-04-27T17:17:46Z</time>
      </trkpt>
      <trkpt lat="45.97184" lon="5.56568">
        <ele>801.848</ele>
        <time>2019-04-27T17:17:59Z</time>
      </trkpt>
      <trkpt lat="45.97182" lon="5.56789">
        <ele>807.585</ele>
        <time>2019-04-27T17:18:11Z</time>
      </trkpt>
      <trkpt lat="45.97224" lon="5.56926">
        <ele>802.431</ele>
        <time>2019-04-27T17:18:20Z</time>
      </trkpt>
      <trkpt lat="45.97207" lon="5.57027">
        <ele>800.258</ele>
        <time>2019-04-27T17:18:27Z</time>
      </trkpt>
      <trkpt lat="45.97168" lon="5.57052">
        <ele>805.363</ele>
        <time>2019-04-27T17:18:30Z</time>
      </trkpt>
      <trkpt lat="45.9703" lon="5.56951">
        <ele>801.682</ele>
        <time>2019-04-27T17:18:42Z</time>
      </trkpt>
      <trkpt lat="45.96774" lon="5.56935">
        <ele>775.142</ele>
        <time>2019-04-27T17:19:09Z</time>
      </trkpt>
      <trkpt lat="45.96825" lon="5.57059">
        <ele>766.322</ele>
        <time>2019-04-27T17:19:17Z</time>
      </trkpt>
      <trkpt lat="45.96771" lon="5.5712">
        <ele>755.914</ele>
        <time>2019-04-27T17:19:26Z</time>
      </trkpt>
      <trkpt lat="45.96831" lon="5.57382">
        <ele>750.408</ele>
        <time>2019-04-27T17:19:41Z</time>
      </trkpt>
      <trkpt lat="45.96919" lon="5.57443">
        <ele>741.047</ele>
        <time>2019-04-27T17:19:50Z</time>
      </trkpt>
      <trkpt lat="45.9685" lon="5.5747">
        <ele>731.549</ele>
        <time>2019-04-27T17:19:59Z</time>
      </trkpt>
      <trkpt lat="45.96842" lon="5.5755">
        <ele>725.991</ele>
        <time>2019-04-27T17:20:07Z</time>
      </trkpt>
      <trkpt lat="45.96712" lon="5.57707">
        <ele>729.728</ele>
        <time>2019-04-27T17:20:28Z</time>
      </trkpt>
      <trkpt lat="45.96712" lon="5.57755">
        <ele>733.134</ele>
        <time>2019-04-27T17:20:32Z</time>
      </trkpt>
      <trkpt lat="45.96755" lon="5.57796">
        <ele>738.081</ele>
        <time>2019-04-27T17:20:37Z</time>
      </trkpt>
      <trkpt lat="45.96653" lon="5.57859">
        <ele>747.636</ele>
        <time>2019-04-27T17:20:48Z</time>
      </trkpt>
      <trkpt lat="45.96335" lon="5.57907">
        <ele>781.655</ele>
        <time>2019-04-27T17:21:10Z</time>
      </trkpt>
      <trkpt lat="45.96108" lon="5.58124">
        <ele>782.661</ele>
        <time>2019-04-27T17:21:30Z</time>
      </trkpt>
      <trkpt lat="45.96014" lon="5.58157">
        <ele>786.721</ele>
        <time>2019-04-27T17:21:38Z</time>
      </trkpt>
      <trkpt lat="45.95598" lon="5.58597">
        <ele>793.813</ele>
        <time>2019-04-27T17:22:13Z</time>
      </trkpt>
      <trkpt lat="45.95294" lon="5.58776">
        <ele>789.408</ele>
        <time>2019-04-27T17:22:46Z</time>
      </trkpt>
      <trkpt lat="45.94751" lon="5.5889">
        <ele>806.919</ele>
        <time>2019-04-27T17:25:43Z</time>
      </trkpt>
      <trkpt lat="45.94639" lon="5.58994">
        <ele>814.561</ele>
        <time>2019-04-27T17:25:59Z</time>
      </trkpt>
      <trkpt lat="45.9426" lon="5.5908">
        <ele>822.873</ele>
        <time>2019-04-27T17:26:27Z</time>
      </trkpt>
      <trkpt lat="45.94141" lon="5.59159">
        <ele>817.63</ele>
        <time>2019-04-27T17:26:36Z</time>
      </trkpt>
      <trkpt lat="45.94047" lon="5.59283">
        <ele>798.796</ele>
        <time>2019-04-27T17:26:47Z</time>
      </trkpt>
      <trkpt lat="45.94036" lon="5.59413">
        <ele>785.423</ele>
        <time>2019-04-27T17:26:57Z</time>
      </trkpt>
      <trkpt lat="45.939" lon="5.59438">
        <ele>784.738</ele>
        <time>2019-04-27T17:27:14Z</time>
      </trkpt>
      <trkpt lat="45.93837" lon="5.59604">
        <ele>781.637</ele>
        <time>2019-04-27T17:27:25Z</time>
      </trkpt>
      <trkpt lat="45.93881" lon="5.59767">
        <ele>775.443</ele>
        <time>2019-04-27T17:27:34Z</time>
      </trkpt>
      <trkpt lat="45.93867" lon="5.59828">
        <ele>774.264</ele>
        <time>2019-04-27T17:27:37Z</time>
      </trkpt>
      <trkpt lat="45.93975" lon="5.60081">
        <ele>771.21</ele>
        <time>2019-04-27T17:27:50Z</time>
      </trkpt>
      <trkpt lat="45.9422" lon="5.60373">
        <ele>774.808</ele>
        <time>2019-04-27T17:28:13Z</time>
      </trkpt>
      <trkpt lat="45.9427" lon="5.60566">
        <ele>779.297</ele>
        <time>2019-04-27T17:28:20Z</time>
      </trkpt>
      <trkpt lat="45.94338" lon="5.60671">
        <ele>784.849</ele>
        <time>2019-04-27T17:28:26Z</time>
      </trkpt>
      <trkpt lat="45.94402" lon="5.60641">
        <ele>786.871</ele>
        <time>2019-04-27T17:28:32Z</time>
      </trkpt>
      <trkpt lat="45.94484" lon="5.60705">
        <ele>793.448</ele>
        <time>2019-04-27T17:28:41Z</time>
      </trkpt>
      <trkpt lat="45.94222" lon="5.60726">
        <ele>804.984</ele>
        <time>2019-04-27T17:29:06Z</time>
      </trkpt>
      <trkpt lat="45.93945" lon="5.60678">
        <ele>828.281</ele>
        <time>2019-04-27T17:29:29Z</time>
      </trkpt>
      <trkpt lat="45.93735" lon="5.60759">
        <ele>856.316</ele>
        <time>2019-04-27T17:29:46Z</time>
      </trkpt>
      <trkpt lat="45.93715" lon="5.60829">
        <ele>860.865</ele>
        <time>2019-04-27T17:29:54Z</time>
      </trkpt>
      <trkpt lat="45.93962" lon="5.60851">
        <ele>859.289</ele>
        <time>2019-04-27T17:30:11Z</time>
      </trkpt>
      <trkpt lat="45.9419" lon="5.60799">
        <ele>857.406</ele>
        <time>2019-04-27T17:30:25Z</time>
      </trkpt>
      <trkpt lat="45.94269" lon="5.60843">
        <ele>859.926</ele>
        <time>2019-04-27T17:30:29Z</time>
      </trkpt>
      <trkpt lat="45.94366" lon="5.60839">
        <ele>862.308</ele>
        <time>2019-04-27T17:30:35Z</time>
      </trkpt>
      <trkpt lat="45.9452" lon="5.60957">
        <ele>870.641</ele>
        <time>2019-04-27T17:30:44Z</time>
      </trkpt>
      <trkpt lat="45.94612" lon="5.60965">
        <ele>871.553</ele>
        <time>2019-04-27T17:30:50Z</time>
      </trkpt>
      <trkpt lat="45.94721" lon="5.6104">
        <ele>877.715</ele>
        <time>2019-04-27T17:33:04Z</time>
      </trkpt>
      <trkpt lat="45.94704" lon="5.61028">
        <ele>876.942</ele>
        <time>2019-04-27T17:38:00Z</time>
      </trkpt>
    </trkseg>
  </trk>
</gpx>